Time;durP1;ratioP1;P1;durP2;ratioP2;P2;SDS_P1;SDS_P2;PMS_P1;PMS_P2;Temp;Humidity;BMP_temperature;BMP_pressure;BME280_temperature;BME280_humidity;BME280_pressure;Samples;Min_cycle;Max_cycle;Signal;HPM_P1;HPM_P2
2022/06/28 00:02:23;;;;;;;4.53;3.95;;;;;;;20.89;68.66;100473.32;1748084;82;21000;-78
2022/06/28 00:04:49;;;;;;;5.33;3.92;;;;;;;20.91;68.59;100477.16;1754657;80;21047;-78
2022/06/28 00:07:16;;;;;;;5.53;4.00;;;;;;;20.89;68.55;100476.52;1752288;80;21942;-78
2022/06/28 00:09:42;;;;;;;5.40;3.98;;;;;;;20.86;68.58;100474.53;1726146;82;21479;-77
2022/06/28 00:12:09;;;;;;;5.58;4.10;;;;;;;20.88;68.54;100478.88;1747584;82;21019;-77
2022/06/28 00:17:21;;;;;;;4.95;4.45;;;;;;;20.89;68.62;100471.14;1749662;82;21424;-77
2022/06/28 00:19:49;;;;;;;6.17;4.17;;;;;;;20.87;68.61;100468.65;1749541;82;21960;-77
2022/06/28 00:22:16;;;;;;;6.08;3.95;;;;;;;20.86;68.67;100465.65;1751153;81;20941;-78
2022/06/28 00:24:42;;;;;;;6.53;4.20;;;;;;;20.83;68.71;100465.48;1750774;80;21458;-80
2022/06/28 00:27:09;;;;;;;4.92;3.75;;;;;;;20.82;68.75;100466.51;1749518;82;21015;-80
2022/06/28 00:29:35;;;;;;;5.75;4.00;;;;;;;20.82;68.76;100470.53;1749788;82;20944;-78
2022/06/28 00:32:05;;;;;;;9.18;4.47;;;;;;;20.82;68.93;100465.17;1749161;80;20981;-79
2022/06/28 00:34:31;;;;;;;4.72;3.98;;;;;;;20.85;68.95;100463.98;1752482;80;21057;-80
2022/06/28 00:36:58;;;;;;;5.78;3.77;;;;;;;20.85;69.01;100462.13;1753234;81;21464;-80
2022/06/28 00:39:24;;;;;;;4.72;4.22;;;;;;;20.86;69.06;100462.96;1749579;82;20961;-79
2022/06/28 00:41:50;;;;;;;5.50;4.17;;;;;;;20.89;69.10;100465.27;1712264;82;20988;-79
2022/06/28 00:44:17;;;;;;;6.30;3.90;;;;;;;20.93;68.96;100461.17;1727253;82;22023;-79
2022/06/28 00:46:44;;;;;;;5.03;3.90;;;;;;;20.95;68.80;100460.50;1746403;81;21025;-79
2022/06/28 00:49:10;;;;;;;5.03;3.80;;;;;;;20.92;68.80;100454.14;1726976;82;21047;-76
2022/06/28 00:51:36;;;;;;;4.85;4.17;;;;;;;20.88;68.80;100462.27;1742550;82;20997;-77
2022/06/28 00:54:03;;;;;;;6.22;4.22;;;;;;;20.87;68.71;100460.59;1727290;82;20992;-78
2022/06/28 00:56:30;;;;;;;7.72;4.22;;;;;;;20.85;68.77;100459.95;1746535;82;21978;-78
2022/06/28 00:58:57;;;;;;;5.05;3.75;;;;;;;20.82;68.87;100460.31;1734704;82;20948;-78
2022/06/28 01:01:24;;;;;;;5.53;4.00;;;;;;;20.77;68.90;100457.37;1726154;83;20988;-77
2022/06/28 01:03:52;;;;;;;5.50;3.98;;;;;;;20.72;69.01;100455.22;1693315;83;21135;-77
2022/06/28 01:06:18;;;;;;;4.78;3.87;;;;;;;20.71;69.04;100464.81;1724851;81;20964;-77
2022/06/28 01:08:47;;;;;;;4.80;4.20;;;;;;;20.69;69.08;100462.83;1726335;83;20973;-76
2022/06/28 01:11:21;;;;;;;9.63;4.30;;;;;;;20.65;69.10;100461.00;1726322;81;20956;-77
2022/06/28 01:13:56;;;;;;;4.20;3.80;;;;;;;20.63;69.36;100464.89;1722541;82;21005;-76
2022/06/28 01:16:23;;;;;;;7.12;3.90;;;;;;;20.60;69.44;100462.59;1725355;82;21024;-78
2022/06/28 01:18:52;;;;;;;7.42;4.15;;;;;;;20.55;69.48;100459.94;1718342;82;21016;-77
2022/06/28 01:21:20;;;;;;;5.40;4.05;;;;;;;20.52;69.50;100455.45;1726241;82;22164;-77
2022/06/28 01:23:47;;;;;;;4.85;3.98;;;;;;;20.47;69.62;100463.23;1723922;83;20940;-77
2022/06/28 01:26:22;;;;;;;4.67;4.17;;;;;;;20.42;69.62;100461.06;1739369;82;21480;-77
2022/06/28 01:28:49;;;;;;;6.05;4.28;;;;;;;20.36;69.71;100461.78;1738970;82;21040;-77
2022/06/28 01:31:27;;;;;;;5.17;4.03;;;;;;;20.32;69.91;100462.34;1735357;82;21004;-77
2022/06/28 01:33:54;;;;;;;6.15;4.08;;;;;;;20.29;70.05;100462.21;1721020;83;21891;-77
2022/06/28 01:36:21;;;;;;;7.85;4.37;;;;;;;20.26;70.21;100465.23;1689800;82;21004;-77
2022/06/28 01:38:48;;;;;;;4.70;3.80;;;;;;;20.21;70.33;100465.80;1746485;82;20949;-77
2022/06/28 01:41:34;;;;;;;6.67;4.10;;;;;;;20.18;70.43;100465.34;1753425;80;20995;-77
2022/06/28 01:44:08;;;;;;;5.45;4.50;;;;;;;20.15;70.57;100479.09;1754371;80;20981;-76
2022/06/28 01:46:39;;;;;;;5.20;4.40;;;;;;;20.09;70.68;100480.66;1749119;82;21951;-76
2022/06/28 01:49:07;;;;;;;5.80;4.33;;;;;;;20.05;70.80;100483.36;1753546;80;20940;-75
2022/06/28 01:51:34;;;;;;;6.55;4.33;;;;;;;20.00;70.89;100479.90;1751554;80;21500;-77
2022/06/28 01:54:01;;;;;;;7.35;4.10;;;;;;;19.97;70.97;100479.41;1748928;82;21113;-77
2022/06/28 01:56:33;;;;;;;6.80;4.40;;;;;;;19.94;71.04;100477.92;1749637;82;21024;-76
2022/06/28 01:59:02;;;;;;;5.75;4.10;;;;;;;19.93;71.16;100485.64;1749868;80;21744;-78
2022/06/28 02:01:30;;;;;;;5.05;3.95;;;;;;;19.91;71.27;100482.31;1739909;82;21012;-77
2022/06/28 02:03:58;;;;;;;5.22;4.47;;;;;;;19.90;71.33;100489.20;1751753;81;20929;-78
2022/06/28 02:06:35;;;;;;;7.55;4.70;;;;;;;19.87;71.48;100490.88;1748461;80;20958;-78
2022/06/28 02:09:04;;;;;;;6.80;4.78;;;;;;;19.86;71.69;100492.73;1749820;80;20992;-79
2022/06/28 02:11:36;;;;;;;8.78;4.53;;;;;;;19.87;71.71;100489.54;1743957;81;21848;-79
2022/06/28 02:14:03;;;;;;;6.33;4.50;;;;;;;19.87;71.80;100490.38;1749310;82;21005;-77
2022/06/28 02:16:30;;;;;;;6.05;4.80;;;;;;;19.83;71.85;100490.42;1749853;81;21040;-79
2022/06/28 02:18:56;;;;;;;5.37;4.72;;;;;;;19.83;71.93;100489.08;1749876;81;21059;-79
2022/06/28 02:21:23;;;;;;;6.80;4.83;;;;;;;19.84;72.03;100486.72;1734872;81;21411;-81
2022/06/28 02:23:49;;;;;;;5.87;4.97;;;;;;;19.84;72.00;100485.89;1745981;82;21801;-81
2022/06/28 02:26:16;;;;;;;6.75;4.75;;;;;;;19.82;71.98;100486.07;1747935;81;21390;-80
2022/06/28 02:28:43;;;;;;;5.20;4.67;;;;;;;19.80;72.01;100490.78;1750688;81;21063;-79
2022/06/28 02:31:11;;;;;;;6.95;5.03;;;;;;;19.78;72.00;100491.45;1764890;80;21016;-79
2022/06/28 02:33:37;;;;;;;5.58;4.70;;;;;;;19.76;72.06;100486.78;1755466;80;21371;-80
2022/06/28 02:41:36;;;;;;;7.35;4.97;;;;;;;19.71;72.18;100499.89;1753640;80;20922;-81
2022/06/28 02:44:03;;;;;;;5.95;4.28;;;;;;;19.71;72.27;100499.89;1754568;80;21008;-83
2022/06/28 02:46:30;;;;;;;5.03;4.53;;;;;;;19.70;72.40;100493.70;1756324;81;21035;-84
2022/06/28 02:48:57;;;;;;;8.15;4.60;;;;;;;19.73;72.52;100493.84;1757749;81;21888;-84
2022/06/28 02:51:24;;;;;;;10.18;4.97;;;;;;;19.74;72.49;100491.48;1725807;81;20967;-84
2022/06/28 02:53:54;;;;;;;7.97;4.65;;;;;;;19.77;72.49;100492.46;1759325;80;21027;-84
2022/06/28 02:56:22;;;;;;;6.47;4.55;;;;;;;19.80;72.48;100492.13;1757837;81;20996;-84
2022/06/28 02:58:49;;;;;;;6.10;4.58;;;;;;;19.90;72.62;100485.19;1752990;80;20972;-84
2022/06/28 03:01:15;;;;;;;8.70;5.12;;;;;;;19.99;72.54;100492.15;1730099;81;22269;-84
2022/06/28 03:03:42;;;;;;;8.40;4.75;;;;;;;20.05;72.32;100483.36;1697605;83;21486;-84
2022/06/28 03:06:09;;;;;;;6.85;4.65;;;;;;;20.11;72.20;100488.53;1696636;83;20979;-84
2022/06/28 03:08:36;;;;;;;6.35;4.70;;;;;;;20.16;72.05;100485.61;1724077;83;20999;-84
2022/06/28 03:11:03;;;;;;;6.55;4.60;;;;;;;20.19;71.97;100483.92;1729191;82;21379;-84
2022/06/28 03:13:30;;;;;;;6.20;4.75;;;;;;;20.24;71.89;100481.52;1725337;83;22544;-79
2022/06/28 03:15:57;;;;;;;5.55;4.62;;;;;;;20.29;71.83;100480.98;1735468;81;20957;-81
2022/06/28 03:18:23;;;;;;;5.87;4.40;;;;;;;20.33;71.73;100485.47;1723923;83;21077;-78
2022/06/28 03:20:50;;;;;;;5.65;4.12;;;;;;;20.38;71.67;100483.09;1730115;81;21066;-79
2022/06/28 03:23:16;;;;;;;6.92;4.47;;;;;;;20.41;71.62;100482.71;1704960;83;20982;-76
2022/06/28 03:25:44;;;;;;;5.08;4.45;;;;;;;20.45;71.56;100478.16;1724355;83;22028;-76
2022/06/28 03:28:11;;;;;;;5.90;4.17;;;;;;;20.49;71.52;100479.47;1724186;81;20998;-76
2022/06/28 03:30:37;;;;;;;9.75;4.55;;;;;;;20.53;71.48;100479.41;1721604;81;21001;-77
2022/06/28 03:33:04;;;;;;;6.85;4.37;;;;;;;20.60;71.55;100480.03;1727043;81;21110;-78
2022/06/28 03:35:34;;;;;;;6.45;4.42;;;;;;;20.65;71.58;100482.98;1723552;83;21063;-78
2022/06/28 03:38:01;;;;;;;6.03;4.37;;;;;;;20.71;71.46;100482.25;1737841;81;22420;-77
2022/06/28 03:40:33;;;;;;;5.00;4.22;;;;;;;20.80;71.35;100483.83;1727773;81;21040;-79
2022/06/28 03:43:00;;;;;;;4.78;4.15;;;;;;;20.89;71.27;100477.34;1718532;83;21044;-79
2022/06/28 03:45:27;;;;;;;5.85;4.35;;;;;;;20.97;71.11;100467.85;1715561;83;21213;-79
2022/06/28 03:48:01;;;;;;;4.80;4.05;;;;;;;21.07;70.86;100472.94;1735813;80;21023;-79
2022/06/28 03:50:46;;;;;;;7.72;4.10;;;;;;;21.18;70.58;100467.08;1749789;82;21854;-79
2022/06/28 03:53:14;;;;;;;6.10;4.03;;;;;;;21.31;70.49;100473.13;1747876;82;20949;-79
2022/06/28 03:55:54;;;;;;;6.20;4.50;;;;;;;21.39;70.23;100466.31;1748661;81;20960;-80
2022/06/28 03:58:21;;;;;;;6.53;4.37;;;;;;;21.50;69.96;100465.80;1753737;80;21000;-79
2022/06/28 04:00:48;;;;;;;5.95;4.17;;;;;;;21.57;69.67;100462.69;1748860;82;21127;-79
2022/06/28 04:03:14;;;;;;;4.97;4.47;;;;;;;21.68;68.97;100462.69;1749311;82;21875;-79
2022/06/28 04:05:42;;;;;;;4.70;4.20;;;;;;;21.77;68.72;100461.53;1748322;80;21016;-79
2022/06/28 04:08:09;;;;;;;5.85;4.30;;;;;;;21.85;68.27;100464.09;1713844;83;20945;-77
2022/06/28 04:10:38;;;;;;;8.03;4.70;;;;;;;21.95;67.69;100459.73;1716097;83;21356;-77
2022/06/28 04:13:13;;;;;;;7.33;4.35;;;;;;;22.07;67.10;100457.37;1710021;83;21115;-81
2022/06/28 04:15:40;;;;;;;6.15;4.40;;;;;;;22.20;66.13;100458.84;1722866;81;21942;-84
2022/06/28 04:18:09;;;;;;;5.25;4.22;;;;;;;22.32;65.75;100452.41;1718082;81;21698;-83
2022/06/28 04:20:41;;;;;;;7.45;4.50;;;;;;;22.41;65.53;100448.53;1746954;82;21391;-83
2022/06/28 04:23:06;;;;;;;7.95;4.47;;;;;;;22.50;65.40;100450.87;1747547;80;20973;-84
2022/06/28 04:25:33;;;;;;;7.42;4.10;;;;;;;22.59;65.05;100452.07;1749053;80;21046;-83
2022/06/28 04:28:01;;;;;;;8.33;4.60;;;;;;;22.66;64.57;100451.05;1748511;82;22554;-84
2022/06/28 04:30:31;;;;;;;7.10;4.42;;;;;;;22.74;64.38;100450.06;1749481;81;20952;-84
2022/06/28 04:32:59;;;;;;;5.15;4.00;;;;;;;22.82;64.11;100445.34;1749591;82;20957;-83
2022/06/28 04:35:26;;;;;;;6.33;3.98;;;;;;;22.92;63.79;100450.91;1748600;80;20989;-83
2022/06/28 04:37:53;;;;;;;5.67;3.92;;;;;;;22.99;63.14;100449.09;1754970;80;21012;-84
2022/06/28 04:40:28;;;;;;;7.45;4.60;;;;;;;23.07;63.06;100446.22;1748158;80;21943;-83
2022/06/28 04:42:56;;;;;;;5.28;4.10;;;;;;;23.14;62.06;100445.19;1724748;82;21371;-84
2022/06/28 04:45:22;;;;;;;7.65;4.45;;;;;;;23.19;62.00;100441.91;1747691;80;21542;-84
2022/06/28 04:47:51;;;;;;;5.58;4.42;;;;;;;23.27;62.04;100447.12;1751852;80;20985;-84
2022/06/28 04:50:18;;;;;;;7.72;4.33;;;;;;;23.33;61.55;100448.16;1749521;80;20941;-84
2022/06/28 04:52:44;;;;;;;5.95;4.28;;;;;;;23.41;61.53;100446.63;1749485;82;22098;-83
2022/06/28 04:55:11;;;;;;;6.92;4.15;;;;;;;23.49;61.35;100453.70;1742551;80;21098;-83
2022/06/28 04:57:40;;;;;;;5.87;4.22;;;;;;;23.57;60.62;100452.16;1746851;80;21107;-83
2022/06/28 05:00:10;;;;;;;7.00;4.03;;;;;;;23.62;60.11;100441.61;1748682;81;21003;-85
2022/06/28 05:02:39;;;;;;;4.80;4.08;;;;;;;23.69;60.06;100450.55;1749435;82;20951;-84
2022/06/28 05:05:08;;;;;;;5.87;4.00;;;;;;;23.78;59.93;100451.19;1749989;80;21856;-84
2022/06/28 05:07:38;;;;;;;6.40;4.08;;;;;;;23.87;59.60;100446.73;1754050;81;21039;-84
2022/06/28 05:10:07;;;;;;;4.37;3.98;;;;;;;23.97;58.42;100447.67;1749659;82;20997;-84
2022/06/28 05:12:34;;;;;;;5.67;4.10;;;;;;;24.05;58.31;100445.29;1760453;80;21002;-84
2022/06/28 05:15:02;;;;;;;7.15;4.67;;;;;;;24.13;58.24;100440.52;1746691;82;21016;-85
2022/06/28 05:17:31;;;;;;;6.45;4.30;;;;;;;24.19;57.62;100436.13;1748072;81;22355;-84
2022/06/28 05:19:59;;;;;;;5.87;4.20;;;;;;;24.24;57.78;100437.70;1746097;82;21004;-78
2022/06/28 05:22:26;;;;;;;5.78;4.25;;;;;;;24.33;57.95;100437.00;1749535;79;20999;-78
2022/06/28 05:25:04;;;;;;;4.67;4.03;;;;;;;24.43;57.93;100440.09;1705043;83;21003;-79
2022/06/28 05:27:31;;;;;;;7.42;4.15;;;;;;;24.51;57.70;100435.30;1751615;81;21007;-79
2022/06/28 05:29:57;;;;;;;4.60;4.20;;;;;;;24.63;57.58;100438.17;1749396;80;22527;-79
2022/06/28 05:32:24;;;;;;;5.35;4.60;;;;;;;24.72;57.57;100438.77;1745973;80;21455;-78
2022/06/28 05:34:51;;;;;;;5.42;4.30;;;;;;;24.80;57.50;100439.37;1746458;80;20993;-78
2022/06/28 05:37:20;;;;;;;5.22;4.10;;;;;;;24.90;57.48;100433.52;1747528;80;21374;-81
2022/06/28 05:39:46;;;;;;;8.98;4.17;;;;;;;24.98;57.55;100434.59;1764588;80;20936;-81
2022/06/28 05:42:14;;;;;;;4.50;3.95;;;;;;;25.10;57.47;100437.52;1744838;80;21791;-80
2022/06/28 05:44:40;;;;;;;9.33;4.15;;;;;;;25.22;56.71;100440.36;1747461;80;21013;-80
2022/06/28 05:47:07;;;;;;;4.92;4.03;;;;;;;25.31;56.17;100439.89;1745069;80;21055;-81
2022/06/28 05:49:34;;;;;;;10.00;4.47;;;;;;;25.41;55.97;100438.06;1746655;80;21048;-80
2022/06/28 05:52:02;;;;;;;6.80;4.53;;;;;;;25.51;55.65;100440.30;1748468;80;21072;-79
2022/06/28 05:54:29;;;;;;;6.22;4.20;;;;;;;25.60;55.79;100439.81;1751461;80;21932;-80
2022/06/28 05:56:56;;;;;;;8.03;3.70;;;;;;;25.68;55.48;100440.91;1737415;80;20981;-79
2022/06/28 05:59:23;;;;;;;9.45;4.35;;;;;;;25.77;54.99;100444.20;1746496;80;21027;-79
2022/06/28 06:01:50;;;;;;;5.55;4.33;;;;;;;25.86;54.39;100441.50;1746816;80;21032;-78
2022/06/28 06:04:16;;;;;;;6.87;4.10;;;;;;;25.93;53.99;100442.81;1741513;80;20945;-80
2022/06/28 06:06:43;;;;;;;7.05;4.10;;;;;;;25.98;53.85;100444.35;1715512;82;21939;-79
2022/06/28 06:09:11;;;;;;;5.28;3.80;;;;;;;26.06;53.58;100450.02;1730914;81;21023;-77
2022/06/28 06:11:39;;;;;;;14.85;4.17;;;;;;;26.13;53.15;100447.53;1720792;81;21442;-78
2022/06/28 06:14:06;;;;;;;6.87;4.08;;;;;;;26.23;53.28;100439.73;1720261;82;21021;-83
2022/06/28 06:16:33;;;;;;;4.75;3.65;;;;;;;26.35;53.24;100444.44;1694099;81;20984;-75
2022/06/28 06:19:01;;;;;;;4.35;3.95;;;;;;;26.47;52.81;100446.73;1721687;81;21913;-82
2022/06/28 06:21:28;;;;;;;4.53;3.92;;;;;;;26.58;52.22;100441.09;1716340;81;21001;-80
2022/06/28 06:23:55;;;;;;;5.03;3.67;;;;;;;26.66;51.52;100428.09;1718897;82;20956;-76
2022/06/28 06:26:22;;;;;;;5.97;3.55;;;;;;;26.72;50.39;100432.58;1709934;82;21067;-76
2022/06/28 06:28:48;;;;;;;6.40;3.90;;;;;;;26.77;50.33;100426.50;1712174;81;21051;-76
2022/06/28 06:31:15;;;;;;;3.92;3.33;;;;;;;26.80;50.49;100417.38;1711156;81;22657;-76
2022/06/28 06:34:00;;;;;;;4.75;3.20;;;;;;;26.89;50.58;100419.78;1688551;82;20994;-77
2022/06/28 06:36:47;;;;;;;7.15;3.58;;;;;;;26.95;49.99;100418.35;1697720;82;21391;-76
2022/06/28 06:39:14;;;;;;;6.15;3.60;;;;;;;27.03;50.25;100422.67;1712879;81;21102;-79
2022/06/28 06:41:41;;;;;;;4.00;3.58;;;;;;;27.12;49.83;100419.95;1696850;81;21034;-76
2022/06/28 06:44:08;;;;;;;4.33;3.37;;;;;;;27.19;49.71;100427.44;1705161;83;21791;-77
2022/06/28 06:46:36;;;;;;;5.05;3.47;;;;;;;27.23;49.60;100424.59;1691131;83;21002;-77
2022/06/28 06:49:03;;;;;;;6.20;3.37;;;;;;;27.32;49.54;100432.70;1716778;82;21010;-77
2022/06/28 06:51:30;;;;;;;6.78;3.80;;;;;;;27.41;49.56;100433.20;1701919;83;20998;-78
2022/06/28 06:53:58;;;;;;;6.00;3.40;;;;;;;27.54;49.99;100433.53;1684743;83;21018;-77
2022/06/28 06:56:24;;;;;;;7.17;3.55;;;;;;;27.67;49.28;100434.70;1700472;83;21943;-78
2022/06/28 06:58:51;;;;;;;6.50;3.65;;;;;;;27.75;49.06;100440.33;1707561;83;21085;-78
2022/06/28 07:01:18;;;;;;;5.60;3.80;;;;;;;27.83;49.22;100438.64;1693980;83;21471;-78
2022/06/28 07:03:45;;;;;;;3.75;3.42;;;;;;;27.93;49.14;100440.25;1704722;83;21418;-81
2022/06/28 07:06:13;;;;;;;6.08;4.20;;;;;;;28.03;48.83;100444.56;1708905;83;21533;-79
2022/06/28 07:08:40;;;;;;;5.35;3.95;;;;;;;28.14;48.20;100442.38;1708777;83;21787;-80
2022/06/28 07:11:08;;;;;;;11.00;9.68;;;;;;;28.21;48.48;100440.92;1711737;83;21027;-80
2022/06/28 07:13:34;;;;;;;4.58;3.85;;;;;;;28.26;47.62;100442.38;1708015;83;21026;-79
2022/06/28 07:16:01;;;;;;;5.15;3.30;;;;;;;28.31;47.68;100444.44;1685898;83;21066;-79
2022/06/28 07:18:29;;;;;;;5.08;3.15;;;;;;;28.39;47.85;100444.08;1715922;83;20946;-79
2022/06/28 07:20:57;;;;;;;5.12;3.30;;;;;;;28.45;46.89;100439.86;1674796;83;21866;-78
2022/06/28 07:23:23;;;;;;;6.33;3.17;;;;;;;28.49;46.35;100438.88;1704279;83;21050;-78
2022/06/28 07:25:50;;;;;;;5.25;3.12;;;;;;;28.50;46.43;100448.14;1686039;84;21244;-79
2022/06/28 07:28:16;;;;;;;4.30;3.30;;;;;;;28.53;46.50;100443.30;1676523;83;21034;-79
2022/06/28 07:30:43;;;;;;;5.10;3.00;;;;;;;28.57;46.30;100448.03;1689448;83;21047;-79
2022/06/28 07:33:09;;;;;;;6.40;3.25;;;;;;;28.63;46.42;100448.41;1716808;82;21880;-79
2022/06/28 07:35:36;;;;;;;3.52;3.20;;;;;;;28.72;46.21;100446.16;1672056;83;21140;-80
2022/06/28 07:38:03;;;;;;;4.12;3.12;;;;;;;28.82;45.85;100447.73;1698046;84;21467;-78
2022/06/28 07:40:34;;;;;;;4.78;3.40;;;;;;;28.88;45.10;100444.59;1679733;83;21164;-79
2022/06/28 07:43:19;;;;;;;4.65;3.15;;;;;;;28.88;45.33;100445.42;1682626;83;20952;-79
2022/06/28 07:45:47;;;;;;;3.70;3.20;;;;;;;28.97;45.68;100444.55;1752323;79;21929;-79
2022/06/28 07:48:17;;;;;;;4.95;2.83;;;;;;;29.06;45.03;100441.20;1758068;79;20945;-80
2022/06/28 07:53:29;;;;;;;6.00;3.15;;;;;;;29.26;44.32;100439.95;1759912;81;20948;-79
2022/06/28 07:56:12;;;;;;;7.00;3.33;;;;;;;29.31;43.52;100443.57;1668061;84;21033;-80
2022/06/28 07:58:40;;;;;;;5.70;3.20;;;;;;;29.31;43.54;100446.30;1723407;79;21797;-82
2022/06/28 08:01:09;;;;;;;5.12;2.87;;;;;;;29.34;44.48;100438.20;1753065;79;21025;-76
2022/06/28 08:03:35;;;;;;;4.53;2.80;;;;;;;29.47;44.78;100436.53;1752844;79;21483;-79
2022/06/28 08:06:03;;;;;;;4.25;2.87;;;;;;;29.57;43.70;100430.47;1748961;79;21435;-80
2022/06/28 08:08:31;;;;;;;6.30;3.65;;;;;;;29.68;44.14;100430.93;1753656;81;21023;-77
2022/06/28 08:10:58;;;;;;;3.67;3.33;;;;;;;29.82;45.07;100434.14;1749997;80;22218;-83
2022/06/28 08:13:25;;;;;;;5.42;2.95;;;;;;;29.98;44.89;100433.87;1757224;79;21057;-86
2022/06/28 08:15:52;;;;;;;4.15;3.62;;;;;;;30.05;43.98;100431.27;1761072;79;21042;-81
2022/06/28 08:18:20;;;;;;;5.53;3.90;;;;;;;30.13;43.49;100428.16;1754920;79;22250;-81
2022/06/28 08:20:46;;;;;;;3.72;3.30;;;;;;;30.21;43.11;100429.64;1757476;79;21046;-84
2022/06/28 08:23:13;;;;;;;6.30;3.20;;;;;;;30.33;42.82;100429.53;1707352;84;22329;-81
2022/06/28 08:25:46;;;;;;;5.65;3.40;;;;;;;30.43;43.15;100426.95;1715558;83;21003;-77
2022/06/28 08:28:10;;;;;;;5.30;4.80;;;;;;;30.52;41.69;100424.08;1722970;81;21046;-82
2022/06/28 08:30:38;;;;;;;4.40;3.60;;;;;;;30.52;41.90;100417.27;1698015;83;21091;-81
2022/06/28 08:33:05;;;;;;;3.70;3.30;;;;;;;30.54;41.92;100419.73;1720488;83;21035;-79
2022/06/28 08:35:32;;;;;;;7.12;3.35;;;;;;;30.57;42.30;100420.05;1725219;82;23240;-76
2022/06/28 08:37:59;;;;;;;5.60;3.33;;;;;;;30.64;43.45;100417.14;1718343;81;21045;-85
2022/06/28 08:40:26;;;;;;;3.85;3.15;;;;;;;30.80;43.29;100416.84;1724412;81;21051;-87
2022/06/28 08:42:54;;;;;;;9.23;8.40;;;;;;;30.94;42.11;100423.00;1695931;83;21008;-85
2022/06/28 08:45:22;;;;;;;5.22;4.42;;;;;;;30.99;42.04;100429.07;1689156;84;21032;-83
2022/06/28 08:47:51;;;;;;;5.05;3.67;;;;;;;31.03;42.05;100431.02;1748149;82;22582;-82
2022/06/28 08:50:27;;;;;;;5.03;4.22;;;;;;;31.10;42.12;100420.45;1724859;81;21427;-78
2022/06/28 08:52:54;;;;;;;7.95;6.58;;;;;;;31.12;41.75;100426.48;1746776;80;21495;-84
2022/06/28 08:55:21;;;;;;;4.67;3.70;;;;;;;31.15;42.41;100415.86;1748469;80;21488;-90
2022/06/28 08:57:47;;;;;;;5.20;4.20;;;;;;;31.26;42.13;100419.55;1748032;81;21001;-85
2022/06/28 09:00:15;;;;;;;5.37;3.40;;;;;;;31.26;41.69;100423.10;1746574;81;21801;-89
2022/06/28 09:02:42;;;;;;;4.17;3.30;;;;;;;31.25;41.55;100421.45;1738701;80;21011;-90
2022/06/28 09:05:08;;;;;;;6.67;3.50;;;;;;;31.29;42.44;100421.78;1743441;80;21463;-89
2022/06/28 09:07:36;;;;;;;5.25;2.98;;;;;;;31.37;41.94;100430.05;1745795;80;21601;-88
2022/06/28 09:10:03;;;;;;;5.95;3.45;;;;;;;31.45;42.28;100424.11;1746885;81;21028;-78
2022/06/28 09:12:33;;;;;;;7.83;3.62;;;;;;;31.47;41.58;100423.33;1770045;80;22358;-86
2022/06/28 09:15:04;;;;;;;6.03;3.40;;;;;;;31.52;41.33;100425.55;1749255;81;21024;-81
2022/06/28 09:17:30;;;;;;;5.87;3.40;;;;;;;31.60;41.34;100419.63;1747811;81;21136;-77
2022/06/28 09:20:07;;;;;;;6.95;3.92;;;;;;;31.70;42.52;100427.63;1748000;80;21051;-74
2022/06/28 09:22:42;;;;;;;6.17;3.65;;;;;;;31.87;41.90;100415.52;1744666;82;21027;-79
2022/06/28 09:25:13;;;;;;;6.65;3.45;;;;;;;32.08;41.19;100415.66;1747815;81;21924;-87
2022/06/28 09:27:42;;;;;;;5.20;3.77;;;;;;;32.23;39.56;100415.73;1742055;80;21051;-84
2022/06/28 09:30:12;;;;;;;5.70;3.50;;;;;;;32.21;40.49;100416.55;1705074;82;21092;-78
2022/06/28 09:32:40;;;;;;;7.35;3.35;;;;;;;32.30;40.35;100412.27;1683034;83;21103;-81
2022/06/28 09:35:11;;;;;;;4.95;3.85;;;;;;;32.42;40.25;100400.58;1738719;81;21087;-81
2022/06/28 09:37:52;;;;;;;6.37;3.45;;;;;;;32.43;39.97;100402.25;1737625;80;22648;-81
2022/06/28 09:40:23;;;;;;;4.80;4.30;;;;;;;32.42;39.72;100399.20;1729833;80;21050;-83
2022/06/28 09:43:14;;;;;;;6.03;3.90;;;;;;;32.51;40.12;100400.89;1747161;81;22226;-83
2022/06/28 09:45:45;;;;;;;6.35;3.52;;;;;;;32.66;39.73;100399.61;1739012;80;21071;-78
2022/06/28 09:48:17;;;;;;;6.35;3.50;;;;;;;32.78;38.77;100391.71;1748111;81;21004;-81
2022/06/28 09:50:44;;;;;;;4.20;3.72;;;;;;;32.80;38.76;100392.27;1745959;82;22602;-79
2022/06/28 09:53:13;;;;;;;6.03;3.58;;;;;;;32.82;39.16;100387.37;1744901;82;21012;-82
2022/06/28 09:55:39;;;;;;;5.47;3.40;;;;;;;32.85;38.36;100393.69;1745091;81;20992;-77
2022/06/28 09:58:06;;;;;;;6.25;3.60;;;;;;;32.92;38.43;100388.25;1677081;83;21470;-79
2022/06/28 10:00:35;;;;;;;4.28;3.35;;;;;;;33.04;38.65;100386.63;1726744;80;20960;-81
2022/06/28 10:03:02;;;;;;;10.65;3.87;;;;;;;33.17;39.18;100377.89;1750566;80;21951;-81
2022/06/28 10:05:29;;;;;;;5.65;3.30;;;;;;;33.30;38.98;100373.27;1748494;80;21055;-77
2022/06/28 10:07:56;;;;;;;4.90;3.20;;;;;;;33.46;39.38;100376.85;1747576;80;21040;-83
2022/06/28 10:10:24;;;;;;;5.62;3.20;;;;;;;33.63;38.81;100369.74;1725116;82;21047;-76
2022/06/28 10:15:38;;;;;;;9.00;8.20;;;;;;;33.86;38.94;100371.08;1746167;81;22703;-79
2022/06/28 10:18:17;;;;;;;4.33;3.47;;;;;;;33.99;39.32;100367.82;1748535;82;21051;-76
2022/06/28 10:20:44;;;;;;;24.00;21.80;;;;;;;34.08;38.52;100369.45;1740957;80;21052;-79
2022/06/28 10:23:39;;;;;;;10.53;4.40;;;;;;;34.17;38.43;100372.45;1738393;82;21091;-78
2022/06/28 10:26:19;;;;;;;3.72;3.15;;;;;;;34.14;37.54;100375.17;1742411;81;21079;-75
2022/06/28 10:29:04;;;;;;;5.70;3.40;;;;;;;34.02;37.88;100377.40;1730499;80;21820;-79
2022/06/28 10:31:39;;;;;;;5.15;3.22;;;;;;;33.98;37.15;100372.21;1754719;80;21027;-84
2022/06/28 10:34:08;;;;;;;4.25;3.27;;;;;;;34.00;37.20;100366.72;1744957;80;21012;-74
2022/06/28 10:36:56;;;;;;;7.92;3.60;;;;;;;34.09;37.31;100371.09;1750717;80;21186;-76
2022/06/28 10:39:29;;;;;;;3.80;3.12;;;;;;;34.17;36.01;100368.33;1743448;82;21049;-76
2022/06/28 10:42:05;;;;;;;4.30;3.10;;;;;;;34.03;36.74;100372.19;1711027;83;21752;-75
2022/06/28 10:44:38;;;;;;;5.28;3.37;;;;;;;34.03;36.66;100366.16;1737946;81;21053;-76
2022/06/28 10:47:10;;;;;;;5.78;3.40;;;;;;;34.12;36.75;100360.92;1728140;82;21491;-76
2022/06/28 10:49:57;;;;;;;5.03;3.47;;;;;;;34.24;36.42;100356.50;1728440;83;20970;-76
2022/06/28 10:52:25;;;;;;;4.00;3.35;;;;;;;34.28;35.82;100360.34;1728222;82;21403;-76
2022/06/28 10:54:58;;;;;;;;;;;;;;;34.27;36.68;100366.94;1750495;80;22463;-76
2022/06/28 10:57:27;;;;;;;3.85;3.35;;;;;;;34.32;36.72;100364.98;1748164;82;20135;-76
2022/06/28 11:00:00;;;;;;;4.67;3.40;;;;;;;34.37;35.76;100361.41;1748390;82;21495;-76
2022/06/28 11:02:48;;;;;;;;;;;;;;;34.47;36.02;100356.47;1750783;81;21004;-76
2022/06/28 11:05:15;;;;;;;4.70;4.30;;;;;;;34.68;36.70;100350.59;1748398;82;20163;-79
2022/06/28 11:07:41;;;;;;;6.05;3.52;;;;;;;35.04;37.08;100353.73;1748031;82;21811;-79
2022/06/28 11:10:16;;;;;;;4.35;3.40;;;;;;;35.31;36.16;100347.75;1745357;82;21028;-77
2022/06/28 11:12:43;;;;;;;5.78;3.30;;;;;;;35.50;35.81;100347.34;1735730;82;21001;-77
2022/06/28 11:15:35;;;;;;;4.12;3.15;;;;;;;35.60;35.35;100344.50;1737445;82;20957;-77
2022/06/28 11:18:01;;;;;;;4.50;3.10;;;;;;;35.69;34.25;100340.02;1740791;82;21063;-78
2022/06/28 11:20:30;;;;;;;5.25;3.20;;;;;;;35.70;34.12;100343.03;1741009;82;21917;-77
2022/06/28 11:22:56;;;;;;;3.85;3.30;;;;;;;35.79;34.52;100334.42;1712082;82;21432;-77
2022/06/28 11:25:24;;;;;;;5.55;3.30;;;;;;;35.96;34.80;100336.77;1736670;80;21009;-78
2022/06/28 11:27:59;;;;;;;4.75;3.20;;;;;;;36.13;34.82;100337.12;1746173;81;21106;-75
2022/06/28 11:30:29;;;;;;;5.45;3.70;;;;;;;36.30;33.88;100335.28;1745654;82;21007;-78
2022/06/28 11:32:57;;;;;;;6.95;6.25;;;;;;;36.36;33.32;100334.12;1747166;82;22498;-76
2022/06/28 11:35:27;;;;;;;15.63;9.95;;;;;;;36.43;33.30;100321.95;1746666;82;21035;-76
2022/06/28 11:37:57;;;;;;;5.50;4.40;;;;;;;36.51;33.11;100326.80;1746578;82;21000;-78
2022/06/28 11:40:27;;;;;;;4.87;3.50;;;;;;;36.59;33.75;100319.27;1739374;82;21047;-75
2022/06/28 11:43:04;;;;;;;4.17;3.17;;;;;;;36.72;33.07;100317.14;1746638;82;21012;-77
2022/06/28 11:45:49;;;;;;;3.65;3.20;;;;;;;36.80;33.02;100313.73;1746256;80;22063;-79
2022/06/28 11:48:19;;;;;;;5.28;3.10;;;;;;;36.92;32.83;100314.12;1754734;80;21000;-80